createdAt,value
2022-08-31T00:01:28.173Z,22.66
2022-08-31T00:04:32.393Z,22.48
2022-08-31T00:07:36.530Z,22.45
2022-08-31T00:10:43.226Z,22.36
2022-08-31T00:13:47.711Z,22.14
2022-08-31T00:16:51.846Z,22.00
2022-08-31T00:19:54.454Z,21.89
2022-08-31T00:22:58.521Z,21.86
2022-08-31T00:26:01.155Z,21.73
2022-08-31T00:29:04.795Z,21.63
2022-08-31T00:32:07.645Z,21.61
2022-08-31T00:35:10.558Z,21.45
2022-08-31T00:38:17.661Z,21.38
2022-08-31T00:41:22.173Z,21.44
2022-08-31T00:44:25.023Z,21.02
2022-08-31T00:47:27.962Z,20.72
2022-08-31T00:50:30.652Z,20.68
2022-08-31T00:53:34.749Z,20.97
2022-08-31T00:56:37.917Z,19.10
2022-08-31T00:59:41.020Z,17.91
2022-08-31T01:02:43.794Z,17.52
2022-08-31T01:05:47.098Z,17.32
2022-08-31T01:08:50.908Z,17.44
2022-08-31T01:11:54.139Z,17.58
2022-08-31T01:14:57.434Z,17.66
2022-08-31T01:18:02.370Z,17.81
2022-08-31T01:21:14.314Z,17.86
2022-08-31T01:24:18.904Z,17.86
2022-08-31T01:27:25.904Z,17.85
2022-08-31T01:30:28.471Z,17.75
2022-08-31T01:33:31.411Z,17.65
2022-08-31T01:36:35.533Z,17.56
2022-08-31T01:39:39.564Z,17.59
2022-08-31T01:42:42.194Z,17.56
2022-08-31T01:45:45.324Z,17.65
2022-08-31T01:48:49.100Z,17.59
2022-08-31T01:51:53.609Z,17.54
2022-08-31T01:54:57.991Z,17.57
2022-08-31T01:58:01.506Z,17.59
2022-08-31T02:01:04.864Z,17.52
2022-08-31T02:04:29.948Z,17.57
2022-08-31T02:07:33.003Z,17.56
2022-08-31T02:10:37.534Z,17.62
2022-08-31T02:13:40.337Z,17.64
2022-08-31T02:16:43.096Z,17.68
2022-08-31T02:19:45.895Z,17.66
2022-08-31T02:22:48.706Z,17.62
2022-08-31T02:25:52.720Z,17.68
2022-08-31T02:28:55.598Z,17.63
2022-08-31T02:31:58.658Z,17.62
2022-08-31T02:35:01.387Z,17.67
2022-08-31T02:38:04.074Z,17.68
2022-08-31T02:41:08.960Z,17.49
2022-08-31T02:44:11.664Z,17.50
2022-08-31T02:47:14.299Z,17.40
2022-08-31T02:50:16.897Z,17.46
2022-08-31T02:53:21.760Z,17.53
2022-08-31T02:56:25.911Z,17.61
2022-08-31T02:59:28.648Z,17.50
2022-08-31T03:02:31.770Z,17.60
2022-08-31T03:05:35.056Z,17.68
2022-08-31T03:08:39.535Z,17.71
2022-08-31T03:11:43.696Z,17.70
2022-08-31T03:14:46.392Z,17.72
2022-08-31T03:17:49.206Z,17.67
2022-08-31T03:20:51.951Z,17.63
2022-08-31T03:23:54.468Z,17.59
2022-08-31T03:26:58.653Z,17.56
2022-08-31T03:30:01.332Z,17.59
2022-08-31T03:33:04.191Z,17.63
2022-08-31T03:36:08.136Z,17.67
2022-08-31T03:39:10.853Z,17.72
2022-08-31T03:42:14.862Z,17.70
2022-08-31T03:45:18.217Z,17.69
2022-08-31T03:48:20.905Z,17.74
2022-08-31T03:51:23.643Z,17.76
2022-08-31T03:54:26.488Z,17.72
2022-08-31T03:57:30.585Z,17.74
2022-08-31T04:00:33.960Z,17.74
2022-08-31T04:03:37.001Z,17.66
2022-08-31T04:06:40.792Z,17.79
2022-08-31T04:09:43.565Z,17.81
2022-08-31T04:12:47.586Z,17.91
2022-08-31T04:15:50.231Z,17.99
2022-08-31T04:18:56.416Z,17.89
2022-08-31T04:21:59.141Z,17.91
2022-08-31T04:25:01.823Z,17.92
2022-08-31T04:28:06.168Z,17.91
2022-08-31T04:31:09.266Z,17.94
2022-08-31T04:34:12.054Z,17.92
2022-08-31T04:37:14.888Z,18.00
2022-08-31T04:40:19.791Z,18.00
2022-08-31T04:43:25.110Z,18.02
2022-08-31T04:46:28.557Z,17.97
2022-08-31T04:49:31.488Z,17.97
2022-08-31T04:52:34.094Z,18.05
2022-08-31T04:55:40.890Z,18.03
2022-08-31T04:58:47.665Z,18.01
2022-08-31T05:01:50.294Z,18.03
2022-08-31T05:04:53.138Z,18.06
2022-08-31T05:07:55.895Z,18.03
2022-08-31T05:10:58.607Z,18.06
2022-08-31T05:14:04.009Z,18.10
2022-08-31T05:17:08.032Z,18.14
2022-08-31T05:20:17.847Z,18.15
2022-08-31T05:23:20.626Z,18.21
2022-08-31T05:26:26.776Z,18.22
2022-08-31T05:29:30.929Z,18.21
2022-08-31T05:32:34.129Z,18.17
2022-08-31T05:35:37.554Z,18.21
2022-08-31T05:38:41.027Z,18.26
2022-08-31T05:41:47.298Z,18.28
2022-08-31T05:44:51.307Z,18.31
2022-08-31T05:47:54.009Z,18.42
2022-08-31T05:50:56.552Z,18.47
2022-08-31T05:54:00.578Z,18.52
2022-08-31T05:57:03.832Z,18.56
2022-08-31T06:00:09.581Z,18.51
2022-08-31T06:03:12.625Z,18.48
2022-08-31T06:06:16.200Z,18.45
2022-08-31T06:09:18.920Z,18.50
2022-08-31T06:12:25.576Z,18.57
2022-08-31T06:15:29.550Z,18.53
2022-08-31T06:18:32.124Z,18.59
2022-08-31T06:21:36.958Z,18.53
2022-08-31T06:24:39.679Z,18.59
2022-08-31T06:27:44.122Z,18.59
2022-08-31T06:30:55.234Z,18.65
2022-08-31T06:33:59.611Z,18.59
2022-08-31T06:37:02.220Z,18.69
2022-08-31T06:40:05.342Z,18.72
2022-08-31T06:43:08.409Z,18.72
2022-08-31T06:46:14.127Z,18.78
2022-08-31T06:49:17.064Z,18.82
2022-08-31T06:52:21.056Z,18.83
2022-08-31T06:55:24.442Z,18.90
2022-08-31T06:58:27.090Z,18.91
2022-08-31T07:01:35.289Z,18.96
2022-08-31T07:04:40.021Z,19.09
2022-08-31T07:07:42.631Z,19.19
2022-08-31T07:10:45.347Z,19.25
2022-08-31T07:13:48.530Z,19.26
2022-08-31T07:16:54.307Z,19.44
2022-08-31T07:19:56.895Z,19.59
2022-08-31T07:22:59.635Z,19.75
2022-08-31T07:26:05.277Z,19.86
2022-08-31T07:29:10.062Z,19.97
2022-08-31T07:32:15.690Z,20.04
2022-08-31T07:35:18.708Z,19.91
2022-08-31T07:38:39.151Z,19.91
2022-08-31T07:41:59.522Z,19.70
2022-08-31T07:45:05.439Z,19.52
2022-08-31T07:48:09.660Z,19.45
2022-08-31T07:51:15.096Z,19.44
2022-08-31T07:54:20.552Z,19.28
2022-08-31T07:57:25.833Z,19.28
2022-08-31T08:00:33.073Z,19.38
2022-08-31T08:03:37.014Z,19.58
2022-08-31T08:06:40.231Z,19.72
2022-08-31T08:09:42.924Z,19.69
2022-08-31T08:12:48.428Z,19.63
2022-08-31T08:15:53.988Z,19.74
2022-08-31T08:18:58.093Z,19.88
2022-08-31T08:22:02.825Z,19.82
2022-08-31T08:25:07.003Z,19.89
2022-08-31T08:28:29.020Z,19.93
2022-08-31T08:31:33.814Z,20.11
2022-08-31T08:34:43.379Z,20.29
2022-08-31T08:37:58.633Z,20.38
2022-08-31T08:41:06.934Z,20.29
2022-08-31T08:44:11.350Z,20.33
2022-08-31T08:47:23.914Z,20.49
2022-08-31T08:50:29.734Z,20.47
2022-08-31T08:53:33.220Z,20.62
2022-08-31T08:56:47.577Z,20.84
2022-08-31T08:59:51.017Z,21.00
2022-08-31T09:02:58.318Z,21.26
2022-08-31T09:06:10.493Z,21.51
2022-08-31T09:09:30.690Z,21.66
2022-08-31T09:12:42.111Z,21.92
2022-08-31T09:15:53.009Z,22.21
2022-08-31T09:18:58.073Z,22.09
2022-08-31T09:22:03.098Z,22.28
2022-08-31T09:25:06.407Z,22.67
2022-08-31T09:28:11.178Z,22.49
2022-08-31T09:31:32.662Z,22.97
2022-08-31T09:34:38.564Z,23.02
2022-08-31T09:37:46.089Z,23.08
2022-08-31T09:40:50.558Z,22.69
2022-08-31T09:43:55.291Z,22.79
2022-08-31T09:47:01.949Z,22.88
2022-08-31T09:50:08.337Z,22.59
2022-08-31T09:53:34.781Z,22.36
2022-08-31T09:56:55.528Z,22.56
2022-08-31T09:59:58.398Z,22.40
2022-08-31T10:03:08.864Z,22.14
2022-08-31T10:06:26.348Z,22.20
2022-08-31T10:09:36.101Z,21.98
2022-08-31T10:12:42.295Z,22.23
2022-08-31T10:15:50.799Z,22.96
2022-08-31T10:18:59.239Z,23.25
2022-08-31T10:22:04.693Z,23.45
2022-08-31T10:25:15.321Z,23.83
2022-08-31T10:28:21.685Z,23.59
2022-08-31T10:31:30.063Z,23.07
2022-08-31T10:34:53.188Z,22.49
2022-08-31T10:37:59.938Z,23.20
2022-08-31T10:41:10.821Z,23.01
2022-08-31T10:44:18.213Z,22.81
2022-08-31T10:47:34.249Z,22.72
2022-08-31T10:50:45.300Z,22.91
2022-08-31T10:53:55.400Z,22.83
2022-08-31T10:57:07.323Z,22.42
2022-08-31T11:00:34.769Z,21.80
2022-08-31T11:03:57.431Z,21.59
2022-08-31T11:07:03.760Z,21.33
2022-08-31T11:10:20.061Z,21.74
2022-08-31T11:13:39.476Z,21.97
2022-08-31T11:16:55.098Z,21.92
2022-08-31T11:20:12.182Z,21.86
2022-08-31T11:23:27.888Z,21.91
2022-08-31T11:26:45.131Z,21.98
2022-08-31T11:29:58.148Z,21.73
2022-08-31T11:33:07.622Z,21.82
2022-08-31T11:36:10.296Z,21.72
2022-08-31T11:39:40.197Z,21.49
2022-08-31T11:43:01.107Z,21.31
2022-08-31T11:46:37.869Z,21.30
2022-08-31T11:49:48.486Z,21.42
2022-08-31T11:52:53.414Z,21.60
2022-08-31T11:56:03.915Z,21.56
2022-08-31T11:59:26.535Z,21.58
2022-08-31T12:02:45.451Z,21.57
2022-08-31T12:05:58.013Z,21.84
2022-08-31T12:09:15.594Z,21.83
2022-08-31T12:12:29.294Z,21.70
2022-08-31T12:15:46.809Z,21.83
2022-08-31T12:19:01.337Z,22.28
2022-08-31T12:22:34.955Z,22.68
2022-08-31T12:25:44.019Z,22.80
2022-08-31T12:29:01.920Z,22.85
2022-08-31T12:32:11.477Z,23.10
2022-08-31T12:35:17.687Z,23.75
2022-08-31T12:38:23.625Z,24.39
2022-08-31T12:41:26.349Z,24.99
2022-08-31T12:44:32.917Z,25.75
2022-08-31T12:47:43.075Z,25.90
2022-08-31T12:50:49.911Z,26.18
2022-08-31T12:54:06.086Z,26.85
2022-08-31T12:57:13.156Z,26.95
2022-08-31T13:00:25.872Z,26.95
2022-08-31T13:03:30.721Z,27.27
2022-08-31T13:06:35.382Z,27.35
2022-08-31T13:09:40.638Z,27.37
2022-08-31T13:12:49.205Z,27.91
2022-08-31T13:15:53.066Z,29.31
2022-08-31T13:19:00.289Z,35.77
2022-08-31T13:22:06.095Z,38.59
2022-08-31T13:25:16.430Z,38.25
2022-08-31T13:28:26.228Z,37.09
2022-08-31T13:31:31.442Z,38.66
2022-08-31T13:34:39.334Z,40.46
2022-08-31T13:37:45.791Z,42.78
2022-08-31T13:40:52.465Z,42.91
2022-08-31T13:44:01.256Z,43.27
2022-08-31T13:47:13.012Z,40.44
2022-08-31T13:50:21.883Z,38.71
2022-08-31T13:53:39.479Z,40.84
2022-08-31T13:56:58.755Z,43.77
2022-08-31T14:00:27.333Z,42.18
2022-08-31T14:03:33.036Z,41.50
2022-08-31T14:06:38.054Z,44.77
2022-08-31T14:09:43.318Z,46.58
2022-08-31T14:12:50.530Z,45.42
2022-08-31T14:15:56.206Z,46.86
2022-08-31T14:18:59.757Z,45.58
2022-08-31T14:22:17.177Z,39.39
2022-08-31T14:25:22.163Z,36.51
2022-08-31T14:28:37.218Z,38.45
2022-08-31T14:31:45.247Z,43.02
2022-08-31T14:34:49.110Z,40.90
2022-08-31T14:37:51.712Z,43.34
2022-08-31T14:40:54.432Z,45.44
2022-08-31T14:44:10.010Z,44.04
2022-08-31T14:47:12.782Z,44.39
2022-08-31T14:50:18.751Z,41.96
2022-08-31T14:53:21.992Z,42.22
2022-08-31T14:56:33.149Z,43.82
2022-08-31T14:59:39.641Z,46.80
2022-08-31T15:02:43.738Z,45.90
2022-08-31T15:05:48.905Z,45.89
2022-08-31T15:08:52.035Z,40.87
2022-08-31T15:11:58.002Z,34.02
2022-08-31T15:15:01.890Z,31.14
2022-08-31T15:18:04.907Z,28.52
2022-08-31T15:21:07.612Z,26.52
2022-08-31T15:24:10.722Z,25.61
2022-08-31T15:27:15.343Z,24.77
2022-08-31T15:30:20.145Z,24.03
2022-08-31T15:33:22.871Z,23.08
2022-08-31T15:36:27.089Z,22.12
2022-08-31T15:39:32.566Z,21.66
2022-08-31T15:42:38.312Z,21.52
2022-08-31T15:45:42.602Z,21.58
2022-08-31T15:48:45.877Z,21.42
2022-08-31T15:51:49.153Z,21.74
2022-08-31T15:54:52.158Z,22.09
2022-08-31T15:57:55.731Z,22.31
2022-08-31T16:00:59.810Z,22.64
2022-08-31T16:04:04.938Z,22.71
2022-08-31T16:07:09.471Z,22.83
2022-08-31T16:10:15.636Z,23.00
2022-08-31T16:13:22.002Z,23.05
2022-08-31T16:16:27.450Z,24.38
2022-08-31T16:19:36.169Z,27.22
2022-08-31T16:22:39.146Z,27.58
2022-08-31T16:25:48.068Z,29.57
2022-08-31T16:28:51.594Z,29.17
2022-08-31T16:31:56.406Z,27.50
2022-08-31T16:35:00.001Z,26.56
2022-08-31T16:38:02.714Z,26.35
2022-08-31T16:41:06.429Z,29.61
2022-08-31T16:44:19.703Z,30.19
2022-08-31T16:47:24.415Z,27.60
2022-08-31T16:50:26.094Z,26.14
2022-08-31T16:53:28.907Z,25.74
2022-08-31T16:56:33.346Z,25.49
2022-08-31T16:59:36.898Z,24.98
2022-08-31T17:02:41.114Z,24.63
2022-08-31T17:05:44.013Z,24.16
2022-08-31T17:08:47.156Z,23.76
2022-08-31T17:11:55.527Z,23.45
2022-08-31T17:15:00.519Z,23.33
2022-08-31T17:18:04.701Z,23.38
2022-08-31T17:21:07.726Z,23.25
2022-08-31T17:24:14.915Z,23.10
2022-08-31T17:27:20.579Z,23.08
2022-08-31T17:30:23.261Z,23.04
2022-08-31T17:33:27.391Z,22.79
2022-08-31T17:36:37.377Z,22.57
2022-08-31T17:39:40.828Z,22.25
2022-08-31T17:42:44.428Z,21.81
2022-08-31T17:45:46.966Z,21.40
2022-08-31T17:48:51.332Z,21.28
2022-08-31T17:51:55.532Z,21.12
2022-08-31T17:55:00.211Z,20.89
2022-08-31T17:58:02.925Z,20.64
2022-08-31T18:01:07.286Z,20.41
2022-08-31T18:04:12.379Z,20.11
2022-08-31T18:07:15.373Z,19.98
2022-08-31T18:10:19.060Z,19.84
2022-08-31T18:13:21.895Z,19.57
2022-08-31T18:16:27.409Z,19.37
2022-08-31T18:19:33.369Z,19.33
2022-08-31T18:22:35.989Z,19.23
2022-08-31T18:25:40.961Z,19.06
2022-08-31T18:28:44.125Z,19.02
2022-08-31T18:31:50.133Z,18.97
2022-08-31T18:34:57.383Z,18.84
2022-08-31T18:38:00.437Z,18.92
2022-08-31T18:41:23.426Z,18.92
2022-08-31T18:44:43.877Z,18.69
2022-08-31T18:48:07.235Z,18.66
2022-08-31T18:51:13.635Z,18.60
2022-08-31T18:54:19.258Z,18.48
2022-08-31T18:57:24.538Z,18.44
2022-08-31T19:00:28.971Z,18.45
2022-08-31T19:03:31.952Z,18.41
2022-08-31T19:06:36.225Z,18.47
2022-08-31T19:09:39.357Z,18.38
2022-08-31T19:12:43.555Z,18.35
2022-08-31T19:15:47.029Z,18.23
2022-08-31T19:18:50.607Z,18.18
2022-08-31T19:21:55.468Z,18.08
2022-08-31T19:24:58.241Z,18.12
2022-08-31T19:28:02.028Z,18.12
2022-08-31T19:31:06.561Z,18.03
2022-08-31T19:34:10.223Z,18.04
2022-08-31T19:37:16.040Z,17.98
2022-08-31T19:40:19.406Z,17.95
2022-08-31T19:46:52.509Z,17.87
2022-08-31T19:49:56.075Z,17.87
2022-08-31T19:53:01.684Z,17.83
2022-08-31T19:56:06.504Z,17.73
2022-08-31T19:59:10.233Z,17.69
2022-08-31T20:02:14.281Z,17.65
2022-08-31T20:05:17.616Z,17.57
2022-08-31T20:08:21.986Z,17.56
2022-08-31T20:11:30.431Z,17.48
2022-08-31T20:14:33.356Z,17.43
2022-08-31T20:17:36.229Z,17.37
2022-08-31T20:20:43.540Z,17.36
2022-08-31T20:23:49.944Z,17.50
2022-08-31T20:26:57.045Z,17.42
2022-08-31T20:30:00.435Z,17.33
2022-08-31T20:33:03.482Z,17.52
2022-08-31T20:36:18.818Z,17.56
2022-08-31T20:39:25.485Z,17.50
2022-08-31T20:42:28.351Z,17.37
2022-08-31T20:45:31.118Z,17.27
2022-08-31T20:48:59.789Z,17.12
2022-08-31T20:52:02.854Z,17.12
2022-08-31T20:55:08.423Z,17.03
2022-08-31T20:58:11.432Z,17.05
2022-08-31T21:01:15.983Z,17.04
2022-08-31T21:04:19.286Z,17.04
2022-08-31T21:07:23.284Z,16.88
2022-08-31T21:10:37.067Z,16.91
2022-08-31T21:13:40.774Z,16.76
2022-08-31T21:16:43.902Z,16.71
2022-08-31T21:19:46.726Z,16.72
2022-08-31T21:22:49.295Z,16.73
2022-08-31T21:25:55.211Z,16.59
2022-08-31T21:28:58.011Z,16.50
2022-08-31T21:32:03.837Z,16.53
2022-08-31T21:35:07.371Z,16.60
2022-08-31T21:38:13.419Z,16.59
2022-08-31T21:41:17.980Z,16.56
2022-08-31T21:44:21.746Z,16.47
2022-08-31T21:47:24.495Z,16.46
2022-08-31T21:50:28.432Z,16.34
2022-08-31T21:53:31.124Z,16.46
2022-08-31T21:56:39.289Z,16.50
2022-08-31T21:59:42.959Z,16.41
2022-08-31T22:02:46.901Z,16.40
2022-08-31T22:05:50.316Z,16.34
2022-08-31T22:08:55.203Z,16.28
2022-08-31T22:12:03.075Z,16.28
2022-08-31T22:15:10.269Z,16.31
2022-08-31T22:21:36.707Z,16.30
2022-08-31T22:24:39.523Z,16.19
2022-08-31T22:27:46.652Z,16.17
2022-08-31T22:30:49.534Z,16.27
2022-08-31T22:33:52.903Z,16.23
2022-08-31T22:36:56.619Z,16.23
2022-08-31T22:39:59.286Z,16.20
2022-08-31T22:43:05.735Z,16.11
2022-08-31T22:46:11.605Z,16.01
2022-08-31T22:49:14.822Z,16.00
2022-08-31T22:52:17.564Z,16.02
2022-08-31T22:55:20.269Z,16.04
2022-08-31T22:58:24.282Z,15.89
2022-08-31T23:01:29.341Z,15.96
2022-08-31T23:04:34.173Z,16.01
2022-08-31T23:07:36.919Z,15.93
2022-08-31T23:10:40.265Z,15.82
2022-08-31T23:13:53.173Z,15.70
2022-08-31T23:16:59.194Z,15.69
2022-08-31T23:20:03.285Z,15.63
2022-08-31T23:23:06.197Z,15.60
2022-08-31T23:26:10.714Z,15.53
2022-08-31T23:29:18.047Z,15.53
2022-08-31T23:32:23.363Z,15.62
2022-08-31T23:35:28.325Z,15.63
2022-08-31T23:38:32.513Z,15.57
2022-08-31T23:41:39.038Z,15.58
2022-08-31T23:44:46.350Z,15.58
2022-08-31T23:47:50.062Z,15.60
2022-08-31T23:50:53.049Z,15.56
2022-08-31T23:53:56.957Z,15.55
2022-08-31T23:57:00.035Z,15.47
